sensor_id;sensor_type;location;lat;lon;timestamp;temperature;humidity
4908;DHT22;64375;51.540;7.364;2023-09-19T00:00:17;24.00;95.80
4908;DHT22;64375;51.540;7.364;2023-09-19T00:02:52;23.90;96.00
4908;DHT22;64375;51.540;7.364;2023-09-19T00:05:20;24.00;96.10
4908;DHT22;64375;51.540;7.364;2023-09-19T00:07:58;24.00;96.00
4908;DHT22;64375;51.540;7.364;2023-09-19T00:10:30;24.00;95.40
4908;DHT22;64375;51.540;7.364;2023-09-19T00:13:03;23.90;95.90
4908;DHT22;64375;51.540;7.364;2023-09-19T00:15:37;23.90;95.70
4908;DHT22;64375;51.540;7.364;2023-09-19T00:18:08;23.90;95.80
4908;DHT22;64375;51.540;7.364;2023-09-19T00:20:36;23.90;94.80
4908;DHT22;64375;51.540;7.364;2023-09-19T00:23:08;23.80;95.90
4908;DHT22;64375;51.540;7.364;2023-09-19T00:25:39;23.80;96.00
4908;DHT22;64375;51.540;7.364;2023-09-19T00:28:11;23.80;96.00
4908;DHT22;64375;51.540;7.364;2023-09-19T00:30:42;23.80;95.90
4908;DHT22;64375;51.540;7.364;2023-09-19T00:33:13;23.80;95.70
4908;DHT22;64375;51.540;7.364;2023-09-19T00:35:49;23.80;96.00
4908;DHT22;64375;51.540;7.364;2023-09-19T00:38:19;23.80;95.80
4908;DHT22;64375;51.540;7.364;2023-09-19T00:40:49;23.80;95.90
4908;DHT22;64375;51.540;7.364;2023-09-19T00:43:22;23.90;95.00
4908;DHT22;64375;51.540;7.364;2023-09-19T00:45:55;23.80;95.50
4908;DHT22;64375;51.540;7.364;2023-09-19T00:48:27;23.70;95.00
4908;DHT22;64375;51.540;7.364;2023-09-19T00:51:04;23.60;95.40
4908;DHT22;64375;51.540;7.364;2023-09-19T00:53:32;23.50;95.70
4908;DHT22;64375;51.540;7.364;2023-09-19T00:56:09;23.60;95.40
4908;DHT22;64375;51.540;7.364;2023-09-19T00:58:42;23.60;95.90
4908;DHT22;64375;51.540;7.364;2023-09-19T01:01:17;23.60;95.90
4908;DHT22;64375;51.540;7.364;2023-09-19T01:03:46;23.60;94.60
4908;DHT22;64375;51.540;7.364;2023-09-19T01:06:15;23.50;96.00
4908;DHT22;64375;51.540;7.364;2023-09-19T01:08:44;23.50;95.90
4908;DHT22;64375;51.540;7.364;2023-09-19T01:11:17;23.60;95.20
4908;DHT22;64375;51.540;7.364;2023-09-19T01:13:58;23.50;95.90
4908;DHT22;64375;51.540;7.364;2023-09-19T01:16:44;23.50;95.20
4908;DHT22;64375;51.540;7.364;2023-09-19T01:19:39;23.40;95.70
4908;DHT22;64375;51.540;7.364;2023-09-19T01:22:26;23.50;95.80
4908;DHT22;64375;51.540;7.364;2023-09-19T01:25:28;23.40;95.60
4908;DHT22;64375;51.540;7.364;2023-09-19T01:28:16;23.40;95.90
4908;DHT22;64375;51.540;7.364;2023-09-19T01:30:57;23.40;95.70
4908;DHT22;64375;51.540;7.364;2023-09-19T01:36:40;23.20;95.90
4908;DHT22;64375;51.540;7.364;2023-09-19T01:39:11;23.20;94.90
4908;DHT22;64375;51.540;7.364;2023-09-19T01:41:54;23.10;94.40
4908;DHT22;64375;51.540;7.364;2023-09-19T01:44:35;23.10;96.00
4908;DHT22;64375;51.540;7.364;2023-09-19T01:47:26;23.10;95.60
4908;DHT22;64375;51.540;7.364;2023-09-19T01:50:12;23.10;95.70
4908;DHT22;64375;51.540;7.364;2023-09-19T01:52:56;23.20;95.20
4908;DHT22;64375;51.540;7.364;2023-09-19T01:55:26;23.20;95.20
4908;DHT22;64375;51.540;7.364;2023-09-19T01:58:03;23.00;95.60
4908;DHT22;64375;51.540;7.364;2023-09-19T02:00:43;23.00;95.90
4908;DHT22;64375;51.540;7.364;2023-09-19T02:03:22;23.00;95.70
4908;DHT22;64375;51.540;7.364;2023-09-19T02:05:54;23.00;95.60
4908;DHT22;64375;51.540;7.364;2023-09-19T02:08:35;23.00;94.60
4908;DHT22;64375;51.540;7.364;2023-09-19T02:11:03;22.80;95.50
4908;DHT22;64375;51.540;7.364;2023-09-19T02:13:35;22.80;96.00
4908;DHT22;64375;51.540;7.364;2023-09-19T02:16:05;22.80;95.70
4908;DHT22;64375;51.540;7.364;2023-09-19T02:18:35;22.90;95.20
4908;DHT22;64375;51.540;7.364;2023-09-19T02:21:03;22.80;95.80
4908;DHT22;64375;51.540;7.364;2023-09-19T02:23:45;22.90;96.00
4908;DHT22;64375;51.540;7.364;2023-09-19T02:26:17;22.90;96.00
4908;DHT22;64375;51.540;7.364;2023-09-19T02:28:45;23.00;94.90
4908;DHT22;64375;51.540;7.364;2023-09-19T02:31:33;23.00;95.80
4908;DHT22;64375;51.540;7.364;2023-09-19T02:34:03;23.00;95.60
4908;DHT22;64375;51.540;7.364;2023-09-19T02:36:56;23.10;95.80
4908;DHT22;64375;51.540;7.364;2023-09-19T02:39:27;23.00;95.30
4908;DHT22;64375;51.540;7.364;2023-09-19T02:41:56;22.90;95.10
4908;DHT22;64375;51.540;7.364;2023-09-19T02:44:27;23.00;95.80
4908;DHT22;64375;51.540;7.364;2023-09-19T02:46:58;23.00;95.70
4908;DHT22;64375;51.540;7.364;2023-09-19T02:49:30;22.90;95.50
4908;DHT22;64375;51.540;7.364;2023-09-19T02:52:18;22.90;95.80
4908;DHT22;64375;51.540;7.364;2023-09-19T02:54:55;22.80;95.20
4908;DHT22;64375;51.540;7.364;2023-09-19T02:57:29;22.80;95.50
4908;DHT22;64375;51.540;7.364;2023-09-19T03:00:03;22.50;94.80
4908;DHT22;64375;51.540;7.364;2023-09-19T03:02:32;22.50;95.70
4908;DHT22;64375;51.540;7.364;2023-09-19T03:05:07;22.40;94.60
4908;DHT22;64375;51.540;7.364;2023-09-19T03:07:41;22.20;95.90
4908;DHT22;64375;51.540;7.364;2023-09-19T03:10:10;22.30;95.60
4908;DHT22;64375;51.540;7.364;2023-09-19T03:12:53;22.30;94.30
4908;DHT22;64375;51.540;7.364;2023-09-19T03:15:26;22.40;95.20
4908;DHT22;64375;51.540;7.364;2023-09-19T03:17:57;22.40;96.10
4908;DHT22;64375;51.540;7.364;2023-09-19T03:20:27;22.40;95.90
4908;DHT22;64375;51.540;7.364;2023-09-19T03:23:04;22.50;95.70
4908;DHT22;64375;51.540;7.364;2023-09-19T03:25:46;22.40;95.90
4908;DHT22;64375;51.540;7.364;2023-09-19T03:28:17;22.20;95.50
4908;DHT22;64375;51.540;7.364;2023-09-19T03:30:58;22.20;95.70
4908;DHT22;64375;51.540;7.364;2023-09-19T03:33:42;22.30;95.60
4908;DHT22;64375;51.540;7.364;2023-09-19T03:36:11;22.40;94.50
4908;DHT22;64375;51.540;7.364;2023-09-19T03:38:41;22.40;95.90
4908;DHT22;64375;51.540;7.364;2023-09-19T03:41:09;22.50;95.20
4908;DHT22;64375;51.540;7.364;2023-09-19T03:43:43;22.50;95.80
4908;DHT22;64375;51.540;7.364;2023-09-19T03:46:11;22.60;95.70
4908;DHT22;64375;51.540;7.364;2023-09-19T03:48:41;22.50;95.60
4908;DHT22;64375;51.540;7.364;2023-09-19T03:51:11;22.50;95.20
4908;DHT22;64375;51.540;7.364;2023-09-19T03:53:42;22.50;94.90
4908;DHT22;64375;51.540;7.364;2023-09-19T03:56:13;22.50;94.40
4908;DHT22;64375;51.540;7.364;2023-09-19T03:58:44;22.30;95.60
4908;DHT22;64375;51.540;7.364;2023-09-19T04:01:15;22.40;95.70
4908;DHT22;64375;51.540;7.364;2023-09-19T04:03:53;22.30;95.50
4908;DHT22;64375;51.540;7.364;2023-09-19T04:06:26;22.30;93.90
4908;DHT22;64375;51.540;7.364;2023-09-19T04:09:09;22.20;93.50
4908;DHT22;64375;51.540;7.364;2023-09-19T04:11:43;22.20;95.70
4908;DHT22;64375;51.540;7.364;2023-09-19T04:14:17;22.30;95.70
4908;DHT22;64375;51.540;7.364;2023-09-19T04:16:45;22.30;93.70
4908;DHT22;64375;51.540;7.364;2023-09-19T04:19:13;22.40;95.70
4908;DHT22;64375;51.540;7.364;2023-09-19T04:21:45;22.40;95.60
4908;DHT22;64375;51.540;7.364;2023-09-19T04:24:13;22.50;95.50
4908;DHT22;64375;51.540;7.364;2023-09-19T04:26:49;22.50;95.40
4908;DHT22;64375;51.540;7.364;2023-09-19T04:29:29;22.50;95.00
4908;DHT22;64375;51.540;7.364;2023-09-19T04:32:00;22.50;95.30
4908;DHT22;64375;51.540;7.364;2023-09-19T04:34:31;22.40;95.30
4908;DHT22;64375;51.540;7.364;2023-09-19T04:37:06;22.40;95.30
4908;DHT22;64375;51.540;7.364;2023-09-19T04:39:34;22.40;94.40
4908;DHT22;64375;51.540;7.364;2023-09-19T04:42:03;22.30;93.50
4908;DHT22;64375;51.540;7.364;2023-09-19T04:44:34;22.30;95.40
4908;DHT22;64375;51.540;7.364;2023-09-19T04:47:08;22.40;95.50
4908;DHT22;64375;51.540;7.364;2023-09-19T04:49:39;22.50;95.50
4908;DHT22;64375;51.540;7.364;2023-09-19T04:52:20;22.40;95.40
4908;DHT22;64375;51.540;7.364;2023-09-19T04:54:51;22.50;95.40
4908;DHT22;64375;51.540;7.364;2023-09-19T04:57:23;22.50;95.30
4908;DHT22;64375;51.540;7.364;2023-09-19T04:59:51;22.50;95.40
4908;DHT22;64375;51.540;7.364;2023-09-19T05:02:29;22.50;95.40
4908;DHT22;64375;51.540;7.364;2023-09-19T05:04:58;22.40;92.70
4908;DHT22;64375;51.540;7.364;2023-09-19T05:07:31;22.30;95.10
4908;DHT22;64375;51.540;7.364;2023-09-19T05:10:04;22.20;95.30
4908;DHT22;64375;51.540;7.364;2023-09-19T05:12:52;22.10;95.30
4908;DHT22;64375;51.540;7.364;2023-09-19T05:15:26;22.10;94.90
4908;DHT22;64375;51.540;7.364;2023-09-19T05:17:54;21.80;92.60
4908;DHT22;64375;51.540;7.364;2023-09-19T05:20:24;21.70;95.10
4908;DHT22;64375;51.540;7.364;2023-09-19T05:23:01;21.70;95.40
4908;DHT22;64375;51.540;7.364;2023-09-19T05:25:40;21.90;94.60
4908;DHT22;64375;51.540;7.364;2023-09-19T05:28:10;21.80;95.40
4908;DHT22;64375;51.540;7.364;2023-09-19T05:30:44;22.00;95.40
4908;DHT22;64375;51.540;7.364;2023-09-19T05:33:15;22.00;95.50
4908;DHT22;64375;51.540;7.364;2023-09-19T05:35:48;22.00;95.50
4908;DHT22;64375;51.540;7.364;2023-09-19T05:38:20;22.00;94.30
4908;DHT22;64375;51.540;7.364;2023-09-19T05:40:48;21.90;95.40
4908;DHT22;64375;51.540;7.364;2023-09-19T05:43:19;21.80;95.20
4908;DHT22;64375;51.540;7.364;2023-09-19T05:45:49;21.80;95.70
4908;DHT22;64375;51.540;7.364;2023-09-19T05:48:19;21.90;94.20
4908;DHT22;64375;51.540;7.364;2023-09-19T05:50:48;21.90;95.50
4908;DHT22;64375;51.540;7.364;2023-09-19T05:53:16;21.70;94.80
4908;DHT22;64375;51.540;7.364;2023-09-19T05:55:46;21.70;95.60
4908;DHT22;64375;51.540;7.364;2023-09-19T05:58:14;21.60;95.60
4908;DHT22;64375;51.540;7.364;2023-09-19T06:00:47;21.60;94.90
4908;DHT22;64375;51.540;7.364;2023-09-19T06:03:23;21.50;93.80
4908;DHT22;64375;51.540;7.364;2023-09-19T06:05:54;21.50;94.10
4908;DHT22;64375;51.540;7.364;2023-09-19T06:08:24;21.40;95.00
4908;DHT22;64375;51.540;7.364;2023-09-19T06:10:54;21.40;94.20
4908;DHT22;64375;51.540;7.364;2023-09-19T06:13:25;21.30;94.50
4908;DHT22;64375;51.540;7.364;2023-09-19T06:15:55;21.40;95.40
4908;DHT22;64375;51.540;7.364;2023-09-19T06:18:25;21.40;94.00
4908;DHT22;64375;51.540;7.364;2023-09-19T06:21:06;21.50;95.00
4908;DHT22;64375;51.540;7.364;2023-09-19T06:23:35;21.60;95.20
4908;DHT22;64375;51.540;7.364;2023-09-19T06:26:10;21.60;94.90
4908;DHT22;64375;51.540;7.364;2023-09-19T06:28:46;21.80;95.20
4908;DHT22;64375;51.540;7.364;2023-09-19T06:31:32;21.80;94.90
4908;DHT22;64375;51.540;7.364;2023-09-19T06:34:08;21.90;95.00
4908;DHT22;64375;51.540;7.364;2023-09-19T06:36:40;21.90;94.90
4908;DHT22;64375;51.540;7.364;2023-09-19T06:39:11;21.90;94.80
4908;DHT22;64375;51.540;7.364;2023-09-19T06:41:46;21.90;94.60
4908;DHT22;64375;51.540;7.364;2023-09-19T06:44:15;21.90;94.70
4908;DHT22;64375;51.540;7.364;2023-09-19T06:46:49;21.90;94.70
4908;DHT22;64375;51.540;7.364;2023-09-19T06:49:18;21.80;94.40
4908;DHT22;64375;51.540;7.364;2023-09-19T06:51:49;21.70;94.40
4908;DHT22;64375;51.540;7.364;2023-09-19T06:54:17;21.70;94.20
4908;DHT22;64375;51.540;7.364;2023-09-19T06:57:06;21.70;95.00
4908;DHT22;64375;51.540;7.364;2023-09-19T06:59:39;21.70;94.90
4908;DHT22;64375;51.540;7.364;2023-09-19T07:02:10;21.50;95.00
4908;DHT22;64375;51.540;7.364;2023-09-19T07:04:40;21.60;94.30
4908;DHT22;64375;51.540;7.364;2023-09-19T07:07:08;21.60;95.20
4908;DHT22;64375;51.540;7.364;2023-09-19T07:09:44;21.60;94.60
4908;DHT22;64375;51.540;7.364;2023-09-19T07:12:23;21.60;95.00
4908;DHT22;64375;51.540;7.364;2023-09-19T07:14:59;21.70;94.90
4908;DHT22;64375;51.540;7.364;2023-09-19T07:17:30;21.80;95.00
4908;DHT22;64375;51.540;7.364;2023-09-19T07:20:06;21.80;93.90
4908;DHT22;64375;51.540;7.364;2023-09-19T07:22:35;21.60;95.00
4908;DHT22;64375;51.540;7.364;2023-09-19T07:25:06;21.70;95.10
4908;DHT22;64375;51.540;7.364;2023-09-19T07:27:36;21.80;95.10
4908;DHT22;64375;51.540;7.364;2023-09-19T07:30:19;21.80;94.10
4908;DHT22;64375;51.540;7.364;2023-09-19T07:32:56;21.70;95.00
4908;DHT22;64375;51.540;7.364;2023-09-19T07:35:24;21.70;94.20
4908;DHT22;64375;51.540;7.364;2023-09-19T07:38:08;21.70;94.80
4908;DHT22;64375;51.540;7.364;2023-09-19T07:40:47;21.80;95.00
4908;DHT22;64375;51.540;7.364;2023-09-19T07:43:23;21.80;94.90
4908;DHT22;64375;51.540;7.364;2023-09-19T07:45:55;21.80;94.90
4908;DHT22;64375;51.540;7.364;2023-09-19T07:48:23;21.80;94.40
4908;DHT22;64375;51.540;7.364;2023-09-19T07:51:04;21.80;94.90
4908;DHT22;64375;51.540;7.364;2023-09-19T07:53:35;21.80;94.90
4908;DHT22;64375;51.540;7.364;2023-09-19T07:56:10;21.90;94.80
4908;DHT22;64375;51.540;7.364;2023-09-19T07:58:55;21.90;94.00
4908;DHT22;64375;51.540;7.364;2023-09-19T08:01:26;21.80;94.90
4908;DHT22;64375;51.540;7.364;2023-09-19T08:03:57;21.80;95.20
4908;DHT22;64375;51.540;7.364;2023-09-19T08:06:42;21.90;94.70
4908;DHT22;64375;51.540;7.364;2023-09-19T08:09:14;21.90;94.90
4908;DHT22;64375;51.540;7.364;2023-09-19T08:11:54;21.90;94.80
4908;DHT22;64375;51.540;7.364;2023-09-19T08:14:23;21.80;94.80
4908;DHT22;64375;51.540;7.364;2023-09-19T08:17:03;21.80;94.90
4908;DHT22;64375;51.540;7.364;2023-09-19T08:19:33;21.80;94.80
4908;DHT22;64375;51.540;7.364;2023-09-19T08:22:01;21.80;94.40
4908;DHT22;64375;51.540;7.364;2023-09-19T08:24:30;21.80;95.10
4908;DHT22;64375;51.540;7.364;2023-09-19T08:27:00;21.80;94.60
4908;DHT22;64375;51.540;7.364;2023-09-19T08:29:32;21.70;95.00
4908;DHT22;64375;51.540;7.364;2023-09-19T08:32:02;21.70;95.10
4908;DHT22;64375;51.540;7.364;2023-09-19T08:34:30;21.70;95.00
4908;DHT22;64375;51.540;7.364;2023-09-19T08:37:01;21.80;95.30
4908;DHT22;64375;51.540;7.364;2023-09-19T08:39:32;21.50;94.60
4908;DHT22;64375;51.540;7.364;2023-09-19T08:42:02;21.10;94.60
4908;DHT22;64375;51.540;7.364;2023-09-19T08:44:37;20.80;94.50
4908;DHT22;64375;51.540;7.364;2023-09-19T08:47:10;20.50;94.80
4908;DHT22;64375;51.540;7.364;2023-09-19T08:49:56;20.30;95.00
4908;DHT22;64375;51.540;7.364;2023-09-19T08:52:37;20.30;95.40
4908;DHT22;64375;51.540;7.364;2023-09-19T08:55:07;20.50;95.50
4908;DHT22;64375;51.540;7.364;2023-09-19T08:58:00;20.70;95.50
4908;DHT22;64375;51.540;7.364;2023-09-19T09:00:30;21.00;95.20
4908;DHT22;64375;51.540;7.364;2023-09-19T09:03:03;21.20;95.30
4908;DHT22;64375;51.540;7.364;2023-09-19T09:05:36;21.30;95.10
4908;DHT22;64375;51.540;7.364;2023-09-19T09:08:07;21.20;95.20
4908;DHT22;64375;51.540;7.364;2023-09-19T09:10:37;21.20;94.80
4908;DHT22;64375;51.540;7.364;2023-09-19T09:13:07;21.30;95.30
4908;DHT22;64375;51.540;7.364;2023-09-19T09:15:38;21.40;95.20
4908;DHT22;64375;51.540;7.364;2023-09-19T09:18:08;21.60;95.20
4908;DHT22;64375;51.540;7.364;2023-09-19T09:20:36;21.70;95.30
4908;DHT22;64375;51.540;7.364;2023-09-19T09:23:04;21.80;95.20
4908;DHT22;64375;51.540;7.364;2023-09-19T09:25:52;21.80;95.10
4908;DHT22;64375;51.540;7.364;2023-09-19T09:28:24;21.90;94.60
4908;DHT22;64375;51.540;7.364;2023-09-19T09:30:55;21.70;95.10
4908;DHT22;64375;51.540;7.364;2023-09-19T09:33:23;21.90;95.40
4908;DHT22;64375;51.540;7.364;2023-09-19T09:35:53;22.00;95.30
4908;DHT22;64375;51.540;7.364;2023-09-19T09:38:25;22.00;95.30
4908;DHT22;64375;51.540;7.364;2023-09-19T09:40:55;22.10;95.30
4908;DHT22;64375;51.540;7.364;2023-09-19T09:43:31;22.10;95.20
4908;DHT22;64375;51.540;7.364;2023-09-19T09:46:12;22.20;95.30
4908;DHT22;64375;51.540;7.364;2023-09-19T09:49:02;22.20;95.30
4908;DHT22;64375;51.540;7.364;2023-09-19T09:51:51;22.30;95.40
4908;DHT22;64375;51.540;7.364;2023-09-19T09:54:30;22.30;95.20
4908;DHT22;64375;51.540;7.364;2023-09-19T09:57:07;22.20;94.20
4908;DHT22;64375;51.540;7.364;2023-09-19T09:59:51;22.30;95.10
4908;DHT22;64375;51.540;7.364;2023-09-19T10:02:25;22.30;95.20
4908;DHT22;64375;51.540;7.364;2023-09-19T10:04:56;22.40;94.80
4908;DHT22;64375;51.540;7.364;2023-09-19T10:07:39;22.40;94.90
4908;DHT22;64375;51.540;7.364;2023-09-19T10:10:11;22.30;93.90
4908;DHT22;64375;51.540;7.364;2023-09-19T10:12:45;22.30;95.10
4908;DHT22;64375;51.540;7.364;2023-09-19T10:15:16;22.30;93.60
4908;DHT22;64375;51.540;7.364;2023-09-19T10:17:48;22.40;95.20
4908;DHT22;64375;51.540;7.364;2023-09-19T10:20:17;22.50;93.90
4908;DHT22;64375;51.540;7.364;2023-09-19T10:23:07;22.40;95.00
4908;DHT22;64375;51.540;7.364;2023-09-19T10:25:40;22.40;94.90
4908;DHT22;64375;51.540;7.364;2023-09-19T10:28:16;22.50;94.90
4908;DHT22;64375;51.540;7.364;2023-09-19T10:30:49;22.60;94.80
4908;DHT22;64375;51.540;7.364;2023-09-19T10:33:20;22.70;94.70
4908;DHT22;64375;51.540;7.364;2023-09-19T10:35:52;22.70;94.40
4908;DHT22;64375;51.540;7.364;2023-09-19T10:38:24;22.70;93.50
4908;DHT22;64375;51.540;7.364;2023-09-19T10:40:53;22.70;93.00
4908;DHT22;64375;51.540;7.364;2023-09-19T10:43:30;22.60;94.50
4908;DHT22;64375;51.540;7.364;2023-09-19T10:46:03;22.70;94.70
4908;DHT22;64375;51.540;7.364;2023-09-19T10:48:38;22.70;94.50
4908;DHT22;64375;51.540;7.364;2023-09-19T10:51:10;22.80;94.40
4908;DHT22;64375;51.540;7.364;2023-09-19T10:53:46;22.70;94.30
4908;DHT22;64375;51.540;7.364;2023-09-19T10:56:23;22.80;93.80
4908;DHT22;64375;51.540;7.364;2023-09-19T10:59:08;22.80;94.10
4908;DHT22;64375;51.540;7.364;2023-09-19T11:01:47;22.90;94.50
4908;DHT22;64375;51.540;7.364;2023-09-19T11:04:23;22.90;94.30
4908;DHT22;64375;51.540;7.364;2023-09-19T11:07:02;22.90;94.20
4908;DHT22;64375;51.540;7.364;2023-09-19T11:09:52;22.90;93.40
4908;DHT22;64375;51.540;7.364;2023-09-19T11:12:48;23.00;93.30
4908;DHT22;64375;51.540;7.364;2023-09-19T11:18:51;23.10;93.90
4908;DHT22;64375;51.540;7.364;2023-09-19T11:21:58;23.00;93.80
4908;DHT22;64375;51.540;7.364;2023-09-19T11:24:31;23.00;91.70
4908;DHT22;64375;51.540;7.364;2023-09-19T11:27:16;23.00;92.20
4908;DHT22;64375;51.540;7.364;2023-09-19T11:29:45;23.00;91.80
4908;DHT22;64375;51.540;7.364;2023-09-19T11:32:14;22.70;93.30
4908;DHT22;64375;51.540;7.364;2023-09-19T11:34:48;22.80;92.40
4908;DHT22;64375;51.540;7.364;2023-09-19T11:40:28;23.10;91.80
4908;DHT22;64375;51.540;7.364;2023-09-19T11:42:57;23.10;92.30
4908;DHT22;64375;51.540;7.364;2023-09-19T11:46:06;23.20;93.10
4908;DHT22;64375;51.540;7.364;2023-09-19T11:48:52;23.30;92.30
4908;DHT22;64375;51.540;7.364;2023-09-19T11:51:22;23.30;93.50
4908;DHT22;64375;51.540;7.364;2023-09-19T11:53:51;23.40;93.30
4908;DHT22;64375;51.540;7.364;2023-09-19T11:56:22;23.40;93.40
4908;DHT22;64375;51.540;7.364;2023-09-19T11:58:52;23.40;93.20
4908;DHT22;64375;51.540;7.364;2023-09-19T12:01:33;23.40;93.00
4908;DHT22;64375;51.540;7.364;2023-09-19T12:04:12;23.50;93.00
4908;DHT22;64375;51.540;7.364;2023-09-19T12:06:41;23.50;93.00
4908;DHT22;64375;51.540;7.364;2023-09-19T12:09:12;23.60;93.40
4908;DHT22;64375;51.540;7.364;2023-09-19T12:11:51;23.60;93.50
4908;DHT22;64375;51.540;7.364;2023-09-19T12:14:26;23.60;93.60
4908;DHT22;64375;51.540;7.364;2023-09-19T12:16:54;23.60;93.70
4908;DHT22;64375;51.540;7.364;2023-09-19T12:19:23;23.60;93.70
4908;DHT22;64375;51.540;7.364;2023-09-19T12:22:06;23.60;93.70
4908;DHT22;64375;51.540;7.364;2023-09-19T12:24:36;23.60;93.70
4908;DHT22;64375;51.540;7.364;2023-09-19T12:27:11;23.60;93.00
4908;DHT22;64375;51.540;7.364;2023-09-19T12:29:44;23.60;93.50
4908;DHT22;64375;51.540;7.364;2023-09-19T12:32:16;23.70;93.70
4908;DHT22;64375;51.540;7.364;2023-09-19T12:34:53;23.80;93.70
4908;DHT22;64375;51.540;7.364;2023-09-19T12:37:22;23.80;93.70
4908;DHT22;64375;51.540;7.364;2023-09-19T12:40:07;23.80;93.70
4908;DHT22;64375;51.540;7.364;2023-09-19T12:42:53;23.90;93.70
4908;DHT22;64375;51.540;7.364;2023-09-19T12:45:25;23.90;93.50
4908;DHT22;64375;51.540;7.364;2023-09-19T12:48:21;23.90;93.60
4908;DHT22;64375;51.540;7.364;2023-09-19T12:51:24;23.90;93.40
4908;DHT22;64375;51.540;7.364;2023-09-19T12:54:08;24.00;93.50
4908;DHT22;64375;51.540;7.364;2023-09-19T12:56:40;24.00;93.40
4908;DHT22;64375;51.540;7.364;2023-09-19T12:59:30;24.10;93.10
4908;DHT22;64375;51.540;7.364;2023-09-19T13:02:05;24.10;92.30
4908;DHT22;64375;51.540;7.364;2023-09-19T13:04:57;24.10;92.90
4908;DHT22;64375;51.540;7.364;2023-09-19T13:07:45;24.10;93.30
4908;DHT22;64375;51.540;7.364;2023-09-19T13:10:19;24.20;93.30
4908;DHT22;64375;51.540;7.364;2023-09-19T13:12:53;24.20;93.30
4908;DHT22;64375;51.540;7.364;2023-09-19T13:15:25;24.20;93.20
4908;DHT22;64375;51.540;7.364;2023-09-19T13:17:56;24.20;91.60
4908;DHT22;64375;51.540;7.364;2023-09-19T13:20:31;24.20;93.10
4908;DHT22;64375;51.540;7.364;2023-09-19T13:23:32;24.30;93.10
4908;DHT22;64375;51.540;7.364;2023-09-19T13:26:00;24.30;92.00
4908;DHT22;64375;51.540;7.364;2023-09-19T13:28:37;24.40;92.90
4908;DHT22;64375;51.540;7.364;2023-09-19T13:31:06;24.40;92.90
4908;DHT22;64375;51.540;7.364;2023-09-19T13:33:34;24.40;92.90
4908;DHT22;64375;51.540;7.364;2023-09-19T13:36:09;24.40;92.80
4908;DHT22;64375;51.540;7.364;2023-09-19T13:38:40;24.40;92.90
4908;DHT22;64375;51.540;7.364;2023-09-19T13:41:13;24.40;92.90
4908;DHT22;64375;51.540;7.364;2023-09-19T13:43:41;24.40;92.50
4908;DHT22;64375;51.540;7.364;2023-09-19T13:46:22;24.40;91.90
4908;DHT22;64375;51.540;7.364;2023-09-19T13:48:53;24.50;92.50
4908;DHT22;64375;51.540;7.364;2023-09-19T13:51:21;24.50;92.50
4908;DHT22;64375;51.540;7.364;2023-09-19T13:53:50;24.50;92.50
4908;DHT22;64375;51.540;7.364;2023-09-19T13:56:18;24.50;92.40
4908;DHT22;64375;51.540;7.364;2023-09-19T13:58:49;24.50;92.30
4908;DHT22;64375;51.540;7.364;2023-09-19T14:01:17;24.60;92.30
4908;DHT22;64375;51.540;7.364;2023-09-19T14:04:11;24.60;91.90
4908;DHT22;64375;51.540;7.364;2023-09-19T14:06:50;24.50;91.90
4908;DHT22;64375;51.540;7.364;2023-09-19T14:09:21;24.50;91.60
4908;DHT22;64375;51.540;7.364;2023-09-19T14:12:06;24.50;91.90
4908;DHT22;64375;51.540;7.364;2023-09-19T14:14:43;24.50;92.00
4908;DHT22;64375;51.540;7.364;2023-09-19T14:17:11;24.50;92.00
4908;DHT22;64375;51.540;7.364;2023-09-19T14:19:46;24.50;92.00
4908;DHT22;64375;51.540;7.364;2023-09-19T14:22:20;24.60;91.50
4908;DHT22;64375;51.540;7.364;2023-09-19T14:24:48;24.60;92.00
4908;DHT22;64375;51.540;7.364;2023-09-19T14:27:19;24.60;92.00
4908;DHT22;64375;51.540;7.364;2023-09-19T14:29:57;24.60;91.80
4908;DHT22;64375;51.540;7.364;2023-09-19T14:32:29;24.60;91.30
4908;DHT22;64375;51.540;7.364;2023-09-19T14:35:08;24.60;92.00
4908;DHT22;64375;51.540;7.364;2023-09-19T14:37:37;24.60;91.80
4908;DHT22;64375;51.540;7.364;2023-09-19T14:40:21;24.60;91.80
4908;DHT22;64375;51.540;7.364;2023-09-19T14:43:04;24.70;92.10
4908;DHT22;64375;51.540;7.364;2023-09-19T14:45:55;24.70;92.00
4908;DHT22;64375;51.540;7.364;2023-09-19T14:48:27;24.70;91.60
4908;DHT22;64375;51.540;7.364;2023-09-19T14:51:03;24.80;91.90
4908;DHT22;64375;51.540;7.364;2023-09-19T14:53:44;24.80;91.90
4908;DHT22;64375;51.540;7.364;2023-09-19T14:56:16;24.80;91.90
4908;DHT22;64375;51.540;7.364;2023-09-19T14:58:46;24.80;91.90
4908;DHT22;64375;51.540;7.364;2023-09-19T15:01:17;24.80;91.90
4908;DHT22;64375;51.540;7.364;2023-09-19T15:04:00;24.80;91.60
4908;DHT22;64375;51.540;7.364;2023-09-19T15:06:36;24.80;91.80
4908;DHT22;64375;51.540;7.364;2023-09-19T15:09:04;24.80;91.90
4908;DHT22;64375;51.540;7.364;2023-09-19T15:11:47;24.70;91.80
4908;DHT22;64375;51.540;7.364;2023-09-19T15:14:18;24.70;91.90
4908;DHT22;64375;51.540;7.364;2023-09-19T15:16:49;24.70;91.90
4908;DHT22;64375;51.540;7.364;2023-09-19T15:19:17;24.70;91.80
4908;DHT22;64375;51.540;7.364;2023-09-19T15:22:01;24.70;91.60
4908;DHT22;64375;51.540;7.364;2023-09-19T15:24:38;24.80;91.40
4908;DHT22;64375;51.540;7.364;2023-09-19T15:27:06;24.70;91.90
4908;DHT22;64375;51.540;7.364;2023-09-19T15:29:34;24.70;91.90
4908;DHT22;64375;51.540;7.364;2023-09-19T15:32:08;24.60;91.30
4908;DHT22;64375;51.540;7.364;2023-09-19T15:34:47;24.60;91.90
4908;DHT22;64375;51.540;7.364;2023-09-19T15:37:17;24.60;92.00
4908;DHT22;64375;51.540;7.364;2023-09-19T15:39:49;24.00;88.90
4908;DHT22;64375;51.540;7.364;2023-09-19T15:42:16;23.50;89.10
4908;DHT22;64375;51.540;7.364;2023-09-19T15:44:44;23.10;89.40
4908;DHT22;64375;51.540;7.364;2023-09-19T15:47:13;22.80;89.60
4908;DHT22;64375;51.540;7.364;2023-09-19T15:49:41;22.60;89.90
4908;DHT22;64375;51.540;7.364;2023-09-19T15:52:09;22.40;90.20
4908;DHT22;64375;51.540;7.364;2023-09-19T15:54:39;22.30;90.20
4908;DHT22;64375;51.540;7.364;2023-09-19T15:57:11;22.30;90.50
4908;DHT22;64375;51.540;7.364;2023-09-19T15:59:39;22.30;90.40
4908;DHT22;64375;51.540;7.364;2023-09-19T16:02:07;22.40;90.50
4908;DHT22;64375;51.540;7.364;2023-09-19T16:04:35;22.60;90.80
4908;DHT22;64375;51.540;7.364;2023-09-19T16:07:10;22.70;91.20
4908;DHT22;64375;51.540;7.364;2023-09-19T16:09:39;22.70;91.10
4908;DHT22;64375;51.540;7.364;2023-09-19T16:12:08;22.60;90.90
4908;DHT22;64375;51.540;7.364;2023-09-19T16:14:43;22.40;90.20
4908;DHT22;64375;51.540;7.364;2023-09-19T16:17:11;22.30;90.50
4908;DHT22;64375;51.540;7.364;2023-09-19T16:19:39;22.30;90.40
4908;DHT22;64375;51.540;7.364;2023-09-19T16:22:10;22.10;90.30
4908;DHT22;64375;51.540;7.364;2023-09-19T16:24:41;22.10;90.60
4908;DHT22;64375;51.540;7.364;2023-09-19T16:27:18;22.10;90.70
4908;DHT22;64375;51.540;7.364;2023-09-19T16:29:50;22.20;90.70
4908;DHT22;64375;51.540;7.364;2023-09-19T16:32:19;22.30;90.50
4908;DHT22;64375;51.540;7.364;2023-09-19T16:34:47;22.30;90.50
4908;DHT22;64375;51.540;7.364;2023-09-19T16:37:15;22.30;90.50
4908;DHT22;64375;51.540;7.364;2023-09-19T16:39:45;22.30;90.50